Time;durP1;ratioP1;P1;durP2;ratioP2;P2;SDS_P1;SDS_P2;PMS_P1;PMS_P2;Temp;Humidity;BMP_temperature;BMP_pressure;BME280_temperature;BME280_humidity;BME280_pressure;Samples;Min_cycle;Max_cycle;Signal;HPM_P1;HPM_P2
2023/10/21 00:01:32;;;;;;;2.60;2.40;;;;;;;;;;5138443;27;20233;-63
2023/10/21 00:04:00;;;;;;;2.75;2.55;;;;;;;;;;5138847;27;20288;-63
2023/10/21 00:06:27;;;;;;;2.83;2.63;;;;;;;;;;5138435;27;20244;-63
2023/10/21 00:08:54;;;;;;;2.58;2.38;;;;;;;;;;5138749;27;20468;-63
2023/10/21 00:11:22;;;;;;;2.53;2.33;;;;;;;;;;5137685;27;20222;-63
2023/10/21 00:13:50;;;;;;;2.85;2.50;;;;;;;;;;5138849;27;20203;-63
2023/10/21 00:16:17;;;;;;;2.60;2.40;;;;;;;;;;5138828;27;20202;-63
2023/10/21 00:18:46;;;;;;;2.80;2.60;;;;;;;;;;5138521;27;20274;-63
2023/10/21 00:21:14;;;;;;;2.33;2.20;;;;;;;;;;5138893;27;20448;-63
2023/10/21 00:23:41;;;;;;;2.58;2.38;;;;;;;;;;5138609;27;20264;-63
2023/10/21 00:26:09;;;;;;;2.45;2.22;;;;;;;;;;5138346;27;20232;-63
2023/10/21 00:28:36;;;;;;;2.83;2.63;;;;;;;;;;5138588;27;20198;-63
2023/10/21 00:31:04;;;;;;;2.50;2.30;;;;;;;;;;5138900;27;20206;-63
2023/10/21 00:33:31;;;;;;;2.55;2.35;;;;;;;;;;5138260;27;20202;-63
2023/10/21 00:36:00;;;;;;;3.03;2.50;;;;;;;;;;5138615;27;20194;-63
2023/10/21 00:38:28;;;;;;;2.58;2.40;;;;;;;;;;5138488;27;20257;-63
2023/10/21 00:40:56;;;;;;;2.55;2.35;;;;;;;;;;5138557;27;20206;-63
2023/10/21 00:43:34;;;;;;;2.45;2.25;;;;;;;;;;5138497;27;20468;-63
2023/10/21 00:46:03;;;;;;;2.30;2.20;;;;;;;;;;5138665;27;20242;-63
2023/10/21 00:48:31;;;;;;;2.53;2.33;;;;;;;;;;5137806;27;20209;-63
2023/10/21 00:51:01;;;;;;;2.40;2.30;;;;;;;;;;5138326;28;20202;-63
2023/10/21 00:53:31;;;;;;;2.70;2.50;;;;;;;;;;5138309;28;20305;-63
2023/10/21 00:55:59;;;;;;;2.13;2.03;;;;;;;;;;5138716;28;20202;-63
2023/10/21 00:58:30;;;;;;;2.40;2.20;;;;;;;;;;5138419;28;20228;-63
2023/10/21 01:00:58;;;;;;;2.25;2.05;;;;;;;;;;5137715;28;20302;-63
2023/10/21 01:03:27;;;;;;;2.30;2.10;;;;;;;;;;5137985;28;20294;-63
2023/10/21 01:05:54;;;;;;;2.42;2.22;;;;;;;;;;5138056;28;20574;-63
2023/10/21 01:08:23;;;;;;;2.10;2.00;;;;;;;;;;5138366;28;20214;-63
2023/10/21 01:10:51;;;;;;;2.08;1.98;;;;;;;;;;5137796;28;20236;-63
2023/10/21 01:13:18;;;;;;;2.28;2.10;;;;;;;;;;5138355;27;20680;-63
2023/10/21 01:15:46;;;;;;;2.70;2.10;;;;;;;;;;5141343;27;20210;-62
2023/10/21 01:18:13;;;;;;;2.50;2.30;;;;;;;;;;5142548;27;20221;-63
2023/10/21 01:20:41;;;;;;;2.33;2.22;;;;;;;;;;5141523;27;20202;-63
2023/10/21 01:23:09;;;;;;;2.38;2.17;;;;;;;;;;5141679;27;20209;-63
2023/10/21 01:25:37;;;;;;;2.03;1.92;;;;;;;;;;5141718;27;20301;-63
2023/10/21 01:28:05;;;;;;;2.40;2.20;;;;;;;;;;5141752;27;20284;-63
2023/10/21 01:30:33;;;;;;;2.33;2.13;;;;;;;;;;5141896;27;20198;-63
2023/10/21 01:33:00;;;;;;;2.00;1.90;;;;;;;;;;5142165;27;20203;-63
2023/10/21 01:35:28;;;;;;;1.95;1.85;;;;;;;;;;5142599;27;20225;-63
2023/10/21 01:37:55;;;;;;;2.30;2.10;;;;;;;;;;5141497;27;20279;-64
2023/10/21 01:40:23;;;;;;;2.25;2.15;;;;;;;;;;5141816;27;20276;-63
2023/10/21 01:42:52;;;;;;;2.20;2.10;;;;;;;;;;5141867;27;20237;-63
2023/10/21 01:45:19;;;;;;;2.50;2.30;;;;;;;;;;5141424;27;20198;-63
2023/10/21 01:47:47;;;;;;;2.00;1.90;;;;;;;;;;5141556;27;20245;-63
2023/10/21 01:50:14;;;;;;;2.00;1.90;;;;;;;;;;5141768;27;20297;-63
2023/10/21 01:52:42;;;;;;;2.00;1.90;;;;;;;;;;5141316;27;20202;-63
2023/10/21 01:55:10;;;;;;;2.08;1.98;;;;;;;;;;5141560;27;20314;-63
2023/10/21 01:57:38;;;;;;;2.20;2.00;;;;;;;;;;5141392;27;20251;-63
2023/10/21 02:00:09;;;;;;;2.30;2.10;;;;;;;;;;5141165;27;20242;-63
2023/10/21 02:02:38;;;;;;;2.22;2.08;;;;;;;;;;5141143;27;20210;-63
2023/10/21 02:05:06;;;;;;;2.38;2.20;;;;;;;;;;5141193;27;20202;-63
2023/10/21 02:07:36;;;;;;;2.00;1.90;;;;;;;;;;5140730;27;20275;-63
2023/10/21 02:10:03;;;;;;;2.22;2.03;;;;;;;;;;5140988;27;20259;-63
2023/10/21 02:12:31;;;;;;;2.33;2.13;;;;;;;;;;5141502;27;20546;-63
2023/10/21 02:14:59;;;;;;;2.30;2.10;;;;;;;;;;5141580;27;20202;-63
2023/10/21 02:17:29;;;;;;;2.30;2.08;;;;;;;;;;5141075;27;20228;-63
2023/10/21 02:19:57;;;;;;;2.20;2.10;;;;;;;;;;5140946;27;20617;-63
2023/10/21 02:22:24;;;;;;;2.03;1.92;;;;;;;;;;5141229;27;20202;-63
2023/10/21 02:24:53;;;;;;;1.90;1.80;;;;;;;;;;5140805;27;20210;-63
2023/10/21 02:27:20;;;;;;;2.47;2.28;;;;;;;;;;5140258;27;20202;-63
2023/10/21 02:29:48;;;;;;;2.20;2.10;;;;;;;;;;5141364;27;20199;-63
2023/10/21 02:32:16;;;;;;;2.60;2.30;;;;;;;;;;5141141;27;20263;-63
2023/10/21 23:28:11;;;;;;;0.55;0.55;;;;;;;;;;5171979;23;20246;-61
2023/10/21 23:30:39;;;;;;;0.50;0.50;;;;;;;;;;4982067;28;20211;-61
2023/10/21 23:33:07;;;;;;;0.63;0.60;;;;;;;;;;4990190;28;20221;-61
2023/10/21 23:35:36;;;;;;;0.98;0.70;;;;;;;;;;4999161;28;20234;-61
2023/10/21 23:38:04;;;;;;;1.35;0.60;;;;;;;;;;4997231;28;20289;-61
2023/10/21 23:40:32;;;;;;;0.70;0.50;;;;;;;;;;4998402;28;20231;-61
2023/10/21 23:43:01;;;;;;;1.40;0.60;;;;;;;;;;4998907;28;20215;-61
2023/10/21 23:45:30;;;;;;;0.68;0.57;;;;;;;;;;4998309;28;20211;-61
2023/10/21 23:47:58;;;;;;;0.60;0.57;;;;;;;;;;4998559;28;20222;-61
2023/10/21 23:50:28;;;;;;;1.38;0.52;;;;;;;;;;4997981;28;20204;-61
2023/10/21 23:52:55;;;;;;;0.50;0.50;;;;;;;;;;4998492;28;20298;-61
2023/10/21 23:55:23;;;;;;;0.95;0.57;;;;;;;;;;4998002;28;20571;-61
2023/10/21 23:57:50;;;;;;;0.55;0.55;;;;;;;;;;4998265;28;20262;-61
